sensor_id;sensor_type;location;lat;lon;timestamp;P1;durP1;ratioP1;P2;durP2;ratioP2
58864;SDS011;45702;52.982;6.658;2024-02-04T00:02:23;22.02;;;4.10;;
58864;SDS011;45702;52.982;6.658;2024-02-04T00:04:50;17.95;;;4.03;;
58864;SDS011;45702;52.982;6.658;2024-02-04T00:07:17;17.33;;;4.80;;
58864;SDS011;45702;52.982;6.658;2024-02-04T00:09:43;24.73;;;4.53;;
58864;SDS011;45702;52.982;6.658;2024-02-04T00:12:09;18.45;;;4.25;;
58864;SDS011;45702;52.982;6.658;2024-02-04T00:14:35;22.70;;;4.43;;
58864;SDS011;45702;52.982;6.658;2024-02-04T00:17:01;11.82;;;4.10;;
58864;SDS011;45702;52.982;6.658;2024-02-04T00:19:27;13.48;;;3.70;;
58864;SDS011;45702;52.982;6.658;2024-02-04T00:21:53;22.05;;;4.60;;
58864;SDS011;45702;52.982;6.658;2024-02-04T00:24:19;19.85;;;4.28;;
58864;SDS011;45702;52.982;6.658;2024-02-04T00:26:45;20.65;;;4.57;;
58864;SDS011;45702;52.982;6.658;2024-02-04T00:29:12;21.02;;;4.47;;
58864;SDS011;45702;52.982;6.658;2024-02-04T00:31:38;23.10;;;4.43;;
58864;SDS011;45702;52.982;6.658;2024-02-04T00:34:04;21.75;;;4.30;;
58864;SDS011;45702;52.982;6.658;2024-02-04T00:36:30;22.15;;;4.43;;
58864;SDS011;45702;52.982;6.658;2024-02-04T00:38:56;18.38;;;4.38;;
58864;SDS011;45702;52.982;6.658;2024-02-04T00:41:23;21.38;;;4.70;;
58864;SDS011;45702;52.982;6.658;2024-02-04T00:43:49;26.20;;;5.47;;
58864;SDS011;45702;52.982;6.658;2024-02-04T00:46:15;21.77;;;4.28;;
58864;SDS011;45702;52.982;6.658;2024-02-04T00:48:41;19.83;;;4.80;;
58864;SDS011;45702;52.982;6.658;2024-02-04T00:51:07;24.58;;;5.60;;
58864;SDS011;45702;52.982;6.658;2024-02-04T00:53:33;24.33;;;5.25;;
58864;SDS011;45702;52.982;6.658;2024-02-04T00:56:00;29.52;;;5.25;;
58864;SDS011;45702;52.982;6.658;2024-02-04T00:58:26;24.17;;;5.53;;
58864;SDS011;45702;52.982;6.658;2024-02-04T01:00:52;31.98;;;5.72;;
58864;SDS011;45702;52.982;6.658;2024-02-04T01:03:18;29.13;;;6.65;;
58864;SDS011;45702;52.982;6.658;2024-02-04T01:05:44;24.15;;;6.07;;
58864;SDS011;45702;52.982;6.658;2024-02-04T01:08:10;25.02;;;5.13;;
58864;SDS011;45702;52.982;6.658;2024-02-04T01:10:37;24.58;;;4.38;;
58864;SDS011;45702;52.982;6.658;2024-02-04T01:13:03;22.25;;;3.95;;
58864;SDS011;45702;52.982;6.658;2024-02-04T01:15:29;15.30;;;4.00;;
58864;SDS011;45702;52.982;6.658;2024-02-04T01:17:55;19.30;;;3.63;;
58864;SDS011;45702;52.982;6.658;2024-02-04T01:20:21;24.27;;;4.00;;
58864;SDS011;45702;52.982;6.658;2024-02-04T01:22:47;18.42;;;3.75;;
58864;SDS011;45702;52.982;6.658;2024-02-04T01:25:13;17.20;;;4.00;;
58864;SDS011;45702;52.982;6.658;2024-02-04T01:27:39;17.88;;;4.20;;
58864;SDS011;45702;52.982;6.658;2024-02-04T01:30:06;19.08;;;3.38;;
58864;SDS011;45702;52.982;6.658;2024-02-04T01:32:32;20.27;;;3.80;;
58864;SDS011;45702;52.982;6.658;2024-02-04T01:34:58;18.88;;;3.40;;
58864;SDS011;45702;52.982;6.658;2024-02-04T01:37:24;21.73;;;3.47;;
58864;SDS011;45702;52.982;6.658;2024-02-04T01:39:50;22.02;;;3.70;;
58864;SDS011;45702;52.982;6.658;2024-02-04T01:42:16;24.45;;;3.70;;
58864;SDS011;45702;52.982;6.658;2024-02-04T01:44:42;17.35;;;3.78;;
58864;SDS011;45702;52.982;6.658;2024-02-04T01:47:08;19.05;;;3.65;;
58864;SDS011;45702;52.982;6.658;2024-02-04T01:49:34;21.65;;;3.30;;
58864;SDS011;45702;52.982;6.658;2024-02-04T01:52:01;22.42;;;3.40;;
58864;SDS011;45702;52.982;6.658;2024-02-04T01:54:28;23.70;;;3.40;;
58864;SDS011;45702;52.982;6.658;2024-02-04T01:56:55;18.10;;;3.35;;
58864;SDS011;45702;52.982;6.658;2024-02-04T01:59:23;13.93;;;3.42;;
58864;SDS011;45702;52.982;6.658;2024-02-04T02:01:49;22.95;;;3.88;;
58864;SDS011;45702;52.982;6.658;2024-02-04T02:04:15;22.30;;;3.70;;
58864;SDS011;45702;52.982;6.658;2024-02-04T02:06:42;21.63;;;3.20;;
58864;SDS011;45702;52.982;6.658;2024-02-04T02:09:08;24.42;;;3.75;;
58864;SDS011;45702;52.982;6.658;2024-02-04T02:11:40;17.70;;;3.80;;
58864;SDS011;45702;52.982;6.658;2024-02-04T02:16:32;24.73;;;3.20;;
58864;SDS011;45702;52.982;6.658;2024-02-04T02:19:04;21.98;;;3.60;;
58864;SDS011;45702;52.982;6.658;2024-02-04T02:21:44;16.15;;;3.60;;
58864;SDS011;45702;52.982;6.658;2024-02-04T02:26:43;23.67;;;3.45;;
58864;SDS011;45702;52.982;6.658;2024-02-04T02:29:09;21.33;;;3.33;;
58864;SDS011;45702;52.982;6.658;2024-02-04T02:31:38;20.05;;;3.72;;
58864;SDS011;45702;52.982;6.658;2024-02-04T02:34:04;22.92;;;3.20;;
58864;SDS011;45702;52.982;6.658;2024-02-04T02:36:33;25.98;;;3.80;;
58864;SDS011;45702;52.982;6.658;2024-02-04T02:39:09;24.33;;;3.40;;
58864;SDS011;45702;52.982;6.658;2024-02-04T02:41:36;17.85;;;3.85;;
58864;SDS011;45702;52.982;6.658;2024-02-04T02:44:03;24.55;;;4.05;;
58864;SDS011;45702;52.982;6.658;2024-02-04T02:46:30;27.45;;;3.70;;
58864;SDS011;45702;52.982;6.658;2024-02-04T02:48:57;26.23;;;4.15;;
58864;SDS011;45702;52.982;6.658;2024-02-04T02:51:24;23.10;;;3.90;;
58864;SDS011;45702;52.982;6.658;2024-02-04T02:53:50;19.83;;;4.10;;
58864;SDS011;45702;52.982;6.658;2024-02-04T02:56:16;17.13;;;3.85;;
58864;SDS011;45702;52.982;6.658;2024-02-04T02:58:42;22.55;;;4.53;;
58864;SDS011;45702;52.982;6.658;2024-02-04T03:01:08;24.60;;;5.00;;
58864;SDS011;45702;52.982;6.658;2024-02-04T03:03:34;31.48;;;5.22;;
58864;SDS011;45702;52.982;6.658;2024-02-04T03:06:00;27.92;;;5.82;;
58864;SDS011;45702;52.982;6.658;2024-02-04T03:08:26;30.92;;;6.25;;
58864;SDS011;45702;52.982;6.658;2024-02-04T03:10:52;26.05;;;6.50;;
58864;SDS011;45702;52.982;6.658;2024-02-04T03:13:18;28.27;;;6.50;;
58864;SDS011;45702;52.982;6.658;2024-02-04T03:15:44;35.08;;;7.60;;
58864;SDS011;45702;52.982;6.658;2024-02-04T03:18:10;28.48;;;6.93;;
58864;SDS011;45702;52.982;6.658;2024-02-04T03:20:37;27.20;;;6.95;;
58864;SDS011;45702;52.982;6.658;2024-02-04T03:23:03;35.00;;;7.15;;
58864;SDS011;45702;52.982;6.658;2024-02-04T03:25:29;37.42;;;7.78;;
58864;SDS011;45702;52.982;6.658;2024-02-04T03:27:55;34.60;;;8.18;;
58864;SDS011;45702;52.982;6.658;2024-02-04T03:30:21;31.10;;;7.15;;
58864;SDS011;45702;52.982;6.658;2024-02-04T03:32:47;30.35;;;8.18;;
58864;SDS011;45702;52.982;6.658;2024-02-04T03:35:13;33.55;;;7.43;;
58864;SDS011;45702;52.982;6.658;2024-02-04T03:37:39;30.75;;;7.20;;
58864;SDS011;45702;52.982;6.658;2024-02-04T03:40:05;29.88;;;7.00;;
58864;SDS011;45702;52.982;6.658;2024-02-04T03:42:31;34.90;;;7.35;;
58864;SDS011;45702;52.982;6.658;2024-02-04T03:44:57;26.83;;;6.38;;
58864;SDS011;45702;52.982;6.658;2024-02-04T03:47:23;32.88;;;6.05;;
58864;SDS011;45702;52.982;6.658;2024-02-04T03:49:49;31.63;;;5.20;;
58864;SDS011;45702;52.982;6.658;2024-02-04T03:52:15;33.83;;;5.90;;
58864;SDS011;45702;52.982;6.658;2024-02-04T03:54:41;25.73;;;5.35;;
58864;SDS011;45702;52.982;6.658;2024-02-04T03:57:07;22.58;;;4.60;;
58864;SDS011;45702;52.982;6.658;2024-02-04T03:59:33;27.25;;;4.95;;
58864;SDS011;45702;52.982;6.658;2024-02-04T04:01:59;24.25;;;4.47;;
58864;SDS011;45702;52.982;6.658;2024-02-04T04:04:25;28.65;;;4.57;;
58864;SDS011;45702;52.982;6.658;2024-02-04T04:06:51;22.52;;;4.30;;
58864;SDS011;45702;52.982;6.658;2024-02-04T04:09:18;27.40;;;4.22;;
58864;SDS011;45702;52.982;6.658;2024-02-04T04:11:44;25.80;;;4.20;;
58864;SDS011;45702;52.982;6.658;2024-02-04T04:14:10;27.35;;;4.38;;
58864;SDS011;45702;52.982;6.658;2024-02-04T04:16:36;29.50;;;4.65;;
58864;SDS011;45702;52.982;6.658;2024-02-04T04:19:02;30.92;;;4.15;;
58864;SDS011;45702;52.982;6.658;2024-02-04T04:21:28;23.10;;;3.90;;
58864;SDS011;45702;52.982;6.658;2024-02-04T04:23:54;26.65;;;3.78;;
58864;SDS011;45702;52.982;6.658;2024-02-04T04:26:20;33.72;;;4.30;;
58864;SDS011;45702;52.982;6.658;2024-02-04T04:28:46;24.20;;;4.40;;
58864;SDS011;45702;52.982;6.658;2024-02-04T04:31:12;20.42;;;4.22;;
58864;SDS011;45702;52.982;6.658;2024-02-04T04:33:38;32.53;;;4.30;;
58864;SDS011;45702;52.982;6.658;2024-02-04T04:36:04;41.78;;;5.55;;
58864;SDS011;45702;52.982;6.658;2024-02-04T04:38:30;21.45;;;4.47;;
58864;SDS011;45702;52.982;6.658;2024-02-04T04:40:56;27.90;;;4.60;;
58864;SDS011;45702;52.982;6.658;2024-02-04T04:43:23;23.58;;;3.72;;
58864;SDS011;45702;52.982;6.658;2024-02-04T04:45:51;19.05;;;3.55;;
58864;SDS011;45702;52.982;6.658;2024-02-04T04:48:18;25.55;;;4.20;;
58864;SDS011;45702;52.982;6.658;2024-02-04T04:50:44;30.10;;;4.15;;
58864;SDS011;45702;52.982;6.658;2024-02-04T04:53:10;22.20;;;4.00;;
58864;SDS011;45702;52.982;6.658;2024-02-04T04:55:36;27.40;;;4.00;;
58864;SDS011;45702;52.982;6.658;2024-02-04T04:58:02;24.52;;;3.85;;
58864;SDS011;45702;52.982;6.658;2024-02-04T05:00:28;15.75;;;3.65;;
58864;SDS011;45702;52.982;6.658;2024-02-04T05:02:54;27.02;;;3.60;;
58864;SDS011;45702;52.982;6.658;2024-02-04T05:05:20;25.75;;;3.90;;
58864;SDS011;45702;52.982;6.658;2024-02-04T05:07:46;33.90;;;4.25;;
58864;SDS011;45702;52.982;6.658;2024-02-04T05:10:12;31.00;;;4.20;;
58864;SDS011;45702;52.982;6.658;2024-02-04T05:12:38;27.02;;;3.33;;
58864;SDS011;45702;52.982;6.658;2024-02-04T05:15:04;22.77;;;3.83;;
58864;SDS011;45702;52.982;6.658;2024-02-04T05:17:31;22.35;;;3.78;;
58864;SDS011;45702;52.982;6.658;2024-02-04T05:19:58;29.52;;;3.58;;
58864;SDS011;45702;52.982;6.658;2024-02-04T05:22:24;24.73;;;4.03;;
58864;SDS011;45702;52.982;6.658;2024-02-04T05:24:50;24.33;;;3.92;;
58864;SDS011;45702;52.982;6.658;2024-02-04T05:27:16;23.83;;;3.30;;
58864;SDS011;45702;52.982;6.658;2024-02-04T05:29:42;25.27;;;3.42;;
58864;SDS011;45702;52.982;6.658;2024-02-04T05:32:08;28.33;;;3.75;;
58864;SDS011;45702;52.982;6.658;2024-02-04T05:34:34;24.45;;;4.00;;
58864;SDS011;45702;52.982;6.658;2024-02-04T05:37:02;21.90;;;3.42;;
58864;SDS011;45702;52.982;6.658;2024-02-04T05:39:28;24.08;;;4.38;;
58864;SDS011;45702;52.982;6.658;2024-02-04T05:41:54;24.88;;;3.80;;
58864;SDS011;45702;52.982;6.658;2024-02-04T05:44:20;30.13;;;3.92;;
58864;SDS011;45702;52.982;6.658;2024-02-04T05:46:46;23.95;;;3.55;;
58864;SDS011;45702;52.982;6.658;2024-02-04T05:49:12;24.85;;;3.50;;
58864;SDS011;45702;52.982;6.658;2024-02-04T05:51:38;24.38;;;3.92;;
58864;SDS011;45702;52.982;6.658;2024-02-04T05:54:05;29.70;;;4.80;;
58864;SDS011;45702;52.982;6.658;2024-02-04T05:56:31;22.95;;;4.45;;
58864;SDS011;45702;52.982;6.658;2024-02-04T05:58:57;26.98;;;3.38;;
58864;SDS011;45702;52.982;6.658;2024-02-04T06:01:23;32.63;;;3.88;;
58864;SDS011;45702;52.982;6.658;2024-02-04T06:03:50;19.70;;;4.00;;
58864;SDS011;45702;52.982;6.658;2024-02-04T06:06:16;27.92;;;3.60;;
58864;SDS011;45702;52.982;6.658;2024-02-04T06:08:44;23.00;;;3.53;;
58864;SDS011;45702;52.982;6.658;2024-02-04T06:11:11;27.90;;;3.13;;
58864;SDS011;45702;52.982;6.658;2024-02-04T06:13:41;19.17;;;2.88;;
58864;SDS011;45702;52.982;6.658;2024-02-04T06:16:07;24.15;;;3.30;;
58864;SDS011;45702;52.982;6.658;2024-02-04T06:18:35;20.10;;;3.20;;
58864;SDS011;45702;52.982;6.658;2024-02-04T06:21:05;22.13;;;3.45;;
58864;SDS011;45702;52.982;6.658;2024-02-04T06:23:31;26.20;;;3.30;;
58864;SDS011;45702;52.982;6.658;2024-02-04T06:25:58;22.20;;;3.53;;
58864;SDS011;45702;52.982;6.658;2024-02-04T06:28:24;22.60;;;3.72;;
58864;SDS011;45702;52.982;6.658;2024-02-04T06:30:50;18.13;;;2.83;;
58864;SDS011;45702;52.982;6.658;2024-02-04T06:33:16;18.40;;;3.70;;
58864;SDS011;45702;52.982;6.658;2024-02-04T06:35:42;25.42;;;3.20;;
58864;SDS011;45702;52.982;6.658;2024-02-04T06:38:08;29.13;;;3.50;;
58864;SDS011;45702;52.982;6.658;2024-02-04T06:40:34;29.40;;;3.08;;
58864;SDS011;45702;52.982;6.658;2024-02-04T06:43:00;28.33;;;3.80;;
58864;SDS011;45702;52.982;6.658;2024-02-04T06:45:26;27.05;;;4.00;;
58864;SDS011;45702;52.982;6.658;2024-02-04T06:47:52;25.85;;;3.65;;
58864;SDS011;45702;52.982;6.658;2024-02-04T06:50:18;22.73;;;3.63;;
58864;SDS011;45702;52.982;6.658;2024-02-04T06:52:45;23.92;;;4.00;;
58864;SDS011;45702;52.982;6.658;2024-02-04T06:55:11;23.02;;;3.97;;
58864;SDS011;45702;52.982;6.658;2024-02-04T06:57:38;28.02;;;3.67;;
58864;SDS011;45702;52.982;6.658;2024-02-04T07:00:05;27.13;;;3.42;;
58864;SDS011;45702;52.982;6.658;2024-02-04T07:02:33;26.85;;;3.47;;
58864;SDS011;45702;52.982;6.658;2024-02-04T07:04:59;25.17;;;3.58;;
58864;SDS011;45702;52.982;6.658;2024-02-04T07:07:25;28.33;;;3.65;;
58864;SDS011;45702;52.982;6.658;2024-02-04T07:09:51;22.77;;;3.47;;
58864;SDS011;45702;52.982;6.658;2024-02-04T07:12:17;30.17;;;4.22;;
58864;SDS011;45702;52.982;6.658;2024-02-04T07:14:43;23.17;;;4.20;;
58864;SDS011;45702;52.982;6.658;2024-02-04T07:17:09;28.83;;;3.75;;
58864;SDS011;45702;52.982;6.658;2024-02-04T07:22:04;30.65;;;4.55;;
58864;SDS011;45702;52.982;6.658;2024-02-04T07:24:30;23.75;;;4.45;;
58864;SDS011;45702;52.982;6.658;2024-02-04T07:26:57;20.98;;;3.80;;
58864;SDS011;45702;52.982;6.658;2024-02-04T07:29:23;23.50;;;3.80;;
58864;SDS011;45702;52.982;6.658;2024-02-04T07:31:49;29.88;;;4.10;;
58864;SDS011;45702;52.982;6.658;2024-02-04T07:34:15;34.33;;;4.03;;
58864;SDS011;45702;52.982;6.658;2024-02-04T07:36:41;31.55;;;3.50;;
58864;SDS011;45702;52.982;6.658;2024-02-04T07:39:07;24.20;;;3.72;;
58864;SDS011;45702;52.982;6.658;2024-02-04T07:41:33;33.42;;;3.85;;
58864;SDS011;45702;52.982;6.658;2024-02-04T07:43:59;26.02;;;3.80;;
58864;SDS011;45702;52.982;6.658;2024-02-04T07:46:25;30.08;;;4.00;;
58864;SDS011;45702;52.982;6.658;2024-02-04T07:48:51;25.27;;;5.10;;
58864;SDS011;45702;52.982;6.658;2024-02-04T07:51:17;25.70;;;3.88;;
58864;SDS011;45702;52.982;6.658;2024-02-04T07:53:43;32.05;;;4.55;;
58864;SDS011;45702;52.982;6.658;2024-02-04T07:56:10;30.58;;;3.95;;
58864;SDS011;45702;52.982;6.658;2024-02-04T07:58:36;34.88;;;4.72;;
58864;SDS011;45702;52.982;6.658;2024-02-04T08:01:03;27.80;;;4.47;;
58864;SDS011;45702;52.982;6.658;2024-02-04T08:03:30;25.58;;;4.03;;
58864;SDS011;45702;52.982;6.658;2024-02-04T08:05:56;28.70;;;4.28;;
58864;SDS011;45702;52.982;6.658;2024-02-04T08:08:22;22.35;;;4.45;;
58864;SDS011;45702;52.982;6.658;2024-02-04T08:10:48;24.42;;;3.90;;
58864;SDS011;45702;52.982;6.658;2024-02-04T08:13:14;25.05;;;3.83;;
58864;SDS011;45702;52.982;6.658;2024-02-04T08:15:40;32.70;;;5.53;;
58864;SDS011;45702;52.982;6.658;2024-02-04T08:18:06;27.85;;;4.10;;
58864;SDS011;45702;52.982;6.658;2024-02-04T08:20:32;31.55;;;4.85;;
58864;SDS011;45702;52.982;6.658;2024-02-04T08:22:58;22.73;;;4.30;;
58864;SDS011;45702;52.982;6.658;2024-02-04T08:25:24;21.58;;;5.00;;
58864;SDS011;45702;52.982;6.658;2024-02-04T08:27:51;18.33;;;5.30;;
58864;SDS011;45702;52.982;6.658;2024-02-04T08:30:17;38.13;;;5.15;;
58864;SDS011;45702;52.982;6.658;2024-02-04T08:32:44;21.20;;;4.45;;
58864;SDS011;45702;52.982;6.658;2024-02-04T08:35:10;25.15;;;4.90;;
58864;SDS011;45702;52.982;6.658;2024-02-04T08:37:36;25.35;;;4.82;;
58864;SDS011;45702;52.982;6.658;2024-02-04T08:40:03;20.70;;;5.10;;
58864;SDS011;45702;52.982;6.658;2024-02-04T08:42:29;30.55;;;5.32;;
58864;SDS011;45702;52.982;6.658;2024-02-04T08:44:55;25.70;;;5.18;;
58864;SDS011;45702;52.982;6.658;2024-02-04T08:47:23;26.05;;;5.25;;
58864;SDS011;45702;52.982;6.658;2024-02-04T08:49:49;23.92;;;4.95;;
58864;SDS011;45702;52.982;6.658;2024-02-04T08:52:15;20.70;;;5.13;;
58864;SDS011;45702;52.982;6.658;2024-02-04T08:54:41;24.23;;;5.80;;
58864;SDS011;45702;52.982;6.658;2024-02-04T08:57:07;23.98;;;5.15;;
58864;SDS011;45702;52.982;6.658;2024-02-04T08:59:33;24.95;;;5.22;;
58864;SDS011;45702;52.982;6.658;2024-02-04T09:01:59;24.50;;;5.32;;
58864;SDS011;45702;52.982;6.658;2024-02-04T09:04:25;25.10;;;5.68;;
58864;SDS011;45702;52.982;6.658;2024-02-04T09:06:51;20.77;;;4.72;;
58864;SDS011;45702;52.982;6.658;2024-02-04T09:09:17;28.08;;;4.40;;
58864;SDS011;45702;52.982;6.658;2024-02-04T09:11:43;22.83;;;4.63;;
58864;SDS011;45702;52.982;6.658;2024-02-04T09:14:09;20.38;;;5.03;;
58864;SDS011;45702;52.982;6.658;2024-02-04T09:16:39;27.90;;;4.82;;
58864;SDS011;45702;52.982;6.658;2024-02-04T09:19:05;21.60;;;4.75;;
58864;SDS011;45702;52.982;6.658;2024-02-04T09:21:31;24.90;;;4.85;;
58864;SDS011;45702;52.982;6.658;2024-02-04T09:23:57;28.63;;;4.72;;
58864;SDS011;45702;52.982;6.658;2024-02-04T09:26:23;29.13;;;5.07;;
58864;SDS011;45702;52.982;6.658;2024-02-04T09:28:49;27.50;;;4.57;;
58864;SDS011;45702;52.982;6.658;2024-02-04T09:31:16;25.92;;;4.93;;
58864;SDS011;45702;52.982;6.658;2024-02-04T09:33:42;21.08;;;4.05;;
58864;SDS011;45702;52.982;6.658;2024-02-04T09:36:08;17.17;;;4.20;;
58864;SDS011;45702;52.982;6.658;2024-02-04T09:38:34;18.92;;;4.50;;
58864;SDS011;45702;52.982;6.658;2024-02-04T09:41:01;19.55;;;4.38;;
58864;SDS011;45702;52.982;6.658;2024-02-04T09:43:30;22.80;;;4.18;;
58864;SDS011;45702;52.982;6.658;2024-02-04T09:45:58;28.58;;;4.28;;
58864;SDS011;45702;52.982;6.658;2024-02-04T09:48:24;17.48;;;3.78;;
58864;SDS011;45702;52.982;6.658;2024-02-04T09:50:52;16.88;;;3.70;;
58864;SDS011;45702;52.982;6.658;2024-02-04T09:53:21;19.63;;;4.03;;
58864;SDS011;45702;52.982;6.658;2024-02-04T09:58:13;15.82;;;3.63;;
58864;SDS011;45702;52.982;6.658;2024-02-04T10:00:39;16.63;;;3.25;;
58864;SDS011;45702;52.982;6.658;2024-02-04T10:03:09;17.75;;;3.58;;
58864;SDS011;45702;52.982;6.658;2024-02-04T10:05:35;23.63;;;3.38;;
58864;SDS011;45702;52.982;6.658;2024-02-04T10:08:01;19.17;;;3.30;;
58864;SDS011;45702;52.982;6.658;2024-02-04T10:10:27;18.70;;;3.35;;
58864;SDS011;45702;52.982;6.658;2024-02-04T10:12:55;17.75;;;2.85;;
58864;SDS011;45702;52.982;6.658;2024-02-04T10:15:21;15.35;;;2.80;;
58864;SDS011;45702;52.982;6.658;2024-02-04T10:17:47;15.57;;;3.03;;
58864;SDS011;45702;52.982;6.658;2024-02-04T10:20:13;18.73;;;3.95;;
58864;SDS011;45702;52.982;6.658;2024-02-04T10:22:40;24.13;;;3.00;;
58864;SDS011;45702;52.982;6.658;2024-02-04T10:25:07;17.73;;;4.18;;
58864;SDS011;45702;52.982;6.658;2024-02-04T10:27:34;15.85;;;3.47;;
58864;SDS011;45702;52.982;6.658;2024-02-04T10:30:00;15.75;;;3.10;;
58864;SDS011;45702;52.982;6.658;2024-02-04T10:32:27;15.93;;;3.20;;
58864;SDS011;45702;52.982;6.658;2024-02-04T10:34:54;18.25;;;3.08;;
58864;SDS011;45702;52.982;6.658;2024-02-04T10:37:20;16.90;;;3.55;;
58864;SDS011;45702;52.982;6.658;2024-02-04T10:39:46;15.75;;;2.78;;
58864;SDS011;45702;52.982;6.658;2024-02-04T10:42:12;14.18;;;3.08;;
58864;SDS011;45702;52.982;6.658;2024-02-04T10:44:39;18.15;;;2.65;;
58864;SDS011;45702;52.982;6.658;2024-02-04T10:47:07;19.55;;;2.80;;
58864;SDS011;45702;52.982;6.658;2024-02-04T10:49:34;19.98;;;3.50;;
58864;SDS011;45702;52.982;6.658;2024-02-04T10:52:04;12.35;;;2.63;;
58864;SDS011;45702;52.982;6.658;2024-02-04T10:54:34;21.23;;;2.95;;
58864;SDS011;45702;52.982;6.658;2024-02-04T10:57:05;18.40;;;2.78;;
58864;SDS011;45702;52.982;6.658;2024-02-04T10:59:31;16.20;;;2.80;;
58864;SDS011;45702;52.982;6.658;2024-02-04T11:01:58;11.88;;;2.90;;
58864;SDS011;45702;52.982;6.658;2024-02-04T11:04:25;13.45;;;2.78;;
58864;SDS011;45702;52.982;6.658;2024-02-04T11:06:53;19.92;;;3.30;;
58864;SDS011;45702;52.982;6.658;2024-02-04T11:09:20;15.35;;;2.70;;
58864;SDS011;45702;52.982;6.658;2024-02-04T11:11:47;14.63;;;2.75;;
58864;SDS011;45702;52.982;6.658;2024-02-04T11:14:14;13.02;;;2.72;;
58864;SDS011;45702;52.982;6.658;2024-02-04T11:16:59;15.82;;;2.58;;
58864;SDS011;45702;52.982;6.658;2024-02-04T11:22:17;12.68;;;3.13;;
58864;SDS011;45702;52.982;6.658;2024-02-04T11:24:51;20.40;;;3.65;;
58864;SDS011;45702;52.982;6.658;2024-02-04T11:27:20;17.85;;;3.47;;
58864;SDS011;45702;52.982;6.658;2024-02-04T11:29:46;19.75;;;3.95;;
58864;SDS011;45702;52.982;6.658;2024-02-04T11:32:12;21.85;;;4.22;;
58864;SDS011;45702;52.982;6.658;2024-02-04T11:34:40;18.30;;;4.20;;
58864;SDS011;45702;52.982;6.658;2024-02-04T11:37:16;16.02;;;3.92;;
58864;SDS011;45702;52.982;6.658;2024-02-04T11:39:52;16.80;;;3.88;;
58864;SDS011;45702;52.982;6.658;2024-02-04T11:42:19;16.02;;;4.13;;
58864;SDS011;45702;52.982;6.658;2024-02-04T11:44:46;19.30;;;4.90;;
58864;SDS011;45702;52.982;6.658;2024-02-04T11:47:22;18.20;;;4.88;;
58864;SDS011;45702;52.982;6.658;2024-02-04T11:49:55;15.43;;;4.97;;
58864;SDS011;45702;52.982;6.658;2024-02-04T11:52:22;16.60;;;4.30;;
58864;SDS011;45702;52.982;6.658;2024-02-04T11:54:48;17.63;;;4.47;;
58864;SDS011;45702;52.982;6.658;2024-02-04T11:57:14;14.75;;;3.83;;
58864;SDS011;45702;52.982;6.658;2024-02-04T11:59:40;21.65;;;4.18;;
58864;SDS011;45702;52.982;6.658;2024-02-04T12:02:08;13.43;;;4.15;;
58864;SDS011;45702;52.982;6.658;2024-02-04T12:04:34;15.30;;;4.57;;
58864;SDS011;45702;52.982;6.658;2024-02-04T12:07:02;15.40;;;3.85;;
58864;SDS011;45702;52.982;6.658;2024-02-04T12:09:29;14.95;;;4.30;;
58864;SDS011;45702;52.982;6.658;2024-02-04T12:11:56;21.42;;;3.88;;
58864;SDS011;45702;52.982;6.658;2024-02-04T12:14:23;14.65;;;4.00;;
58864;SDS011;45702;52.982;6.658;2024-02-04T12:16:49;14.40;;;3.60;;
58864;SDS011;45702;52.982;6.658;2024-02-04T12:19:15;16.40;;;3.72;;
58864;SDS011;45702;52.982;6.658;2024-02-04T12:21:41;19.42;;;3.97;;
58864;SDS011;45702;52.982;6.658;2024-02-04T12:24:08;14.50;;;4.40;;
58864;SDS011;45702;52.982;6.658;2024-02-04T12:26:37;16.95;;;4.32;;
58864;SDS011;45702;52.982;6.658;2024-02-04T12:29:04;20.13;;;3.80;;
58864;SDS011;45702;52.982;6.658;2024-02-04T12:31:30;16.05;;;4.32;;
58864;SDS011;45702;52.982;6.658;2024-02-04T12:33:58;19.02;;;4.10;;
58864;SDS011;45702;52.982;6.658;2024-02-04T12:36:32;18.92;;;3.90;;
58864;SDS011;45702;52.982;6.658;2024-02-04T12:39:01;15.38;;;3.90;;
58864;SDS011;45702;52.982;6.658;2024-02-04T12:41:28;17.15;;;3.75;;
58864;SDS011;45702;52.982;6.658;2024-02-04T12:43:55;18.10;;;3.67;;
58864;SDS011;45702;52.982;6.658;2024-02-04T12:46:22;17.95;;;3.20;;
58864;SDS011;45702;52.982;6.658;2024-02-04T12:48:52;19.65;;;3.10;;
58864;SDS011;45702;52.982;6.658;2024-02-04T12:51:29;17.20;;;2.75;;
58864;SDS011;45702;52.982;6.658;2024-02-04T12:54:05;19.00;;;3.35;;
58864;SDS011;45702;52.982;6.658;2024-02-04T12:56:43;17.60;;;3.28;;
58864;SDS011;45702;52.982;6.658;2024-02-04T12:59:10;19.52;;;3.33;;
58864;SDS011;45702;52.982;6.658;2024-02-04T13:01:37;8.48;;;2.63;;
58864;SDS011;45702;52.982;6.658;2024-02-04T13:04:03;12.75;;;3.17;;
58864;SDS011;45702;52.982;6.658;2024-02-04T13:06:30;16.25;;;3.15;;
58864;SDS011;45702;52.982;6.658;2024-02-04T13:08:56;17.98;;;3.38;;
58864;SDS011;45702;52.982;6.658;2024-02-04T13:11:23;19.17;;;3.20;;
58864;SDS011;45702;52.982;6.658;2024-02-04T13:13:50;21.75;;;3.15;;
58864;SDS011;45702;52.982;6.658;2024-02-04T13:16:16;15.48;;;2.92;;
58864;SDS011;45702;52.982;6.658;2024-02-04T13:18:44;17.95;;;3.03;;
58864;SDS011;45702;52.982;6.658;2024-02-04T13:21:10;15.25;;;3.35;;
58864;SDS011;45702;52.982;6.658;2024-02-04T13:23:36;23.98;;;4.00;;
58864;SDS011;45702;52.982;6.658;2024-02-04T13:26:02;23.00;;;3.38;;
58864;SDS011;45702;52.982;6.658;2024-02-04T13:28:28;22.42;;;3.25;;
58864;SDS011;45702;52.982;6.658;2024-02-04T13:30:55;25.45;;;2.97;;
58864;SDS011;45702;52.982;6.658;2024-02-04T13:33:22;15.85;;;3.72;;
58864;SDS011;45702;52.982;6.658;2024-02-04T13:35:48;17.08;;;3.22;;
58864;SDS011;45702;52.982;6.658;2024-02-04T13:38:15;18.80;;;3.30;;
58864;SDS011;45702;52.982;6.658;2024-02-04T13:40:41;23.35;;;3.97;;
58864;SDS011;45702;52.982;6.658;2024-02-04T13:43:07;19.15;;;3.15;;
58864;SDS011;45702;52.982;6.658;2024-02-04T13:45:33;24.10;;;3.75;;
58864;SDS011;45702;52.982;6.658;2024-02-04T13:47:59;17.77;;;3.75;;
58864;SDS011;45702;52.982;6.658;2024-02-04T13:50:25;15.80;;;3.40;;
58864;SDS011;45702;52.982;6.658;2024-02-04T13:52:51;23.23;;;5.22;;
58864;SDS011;45702;52.982;6.658;2024-02-04T13:55:17;24.20;;;4.25;;
58864;SDS011;45702;52.982;6.658;2024-02-04T13:57:44;15.88;;;3.22;;
58864;SDS011;45702;52.982;6.658;2024-02-04T14:00:10;23.23;;;4.30;;
58864;SDS011;45702;52.982;6.658;2024-02-04T14:02:36;14.38;;;3.20;;
58864;SDS011;45702;52.982;6.658;2024-02-04T14:05:04;20.17;;;5.40;;
58864;SDS011;45702;52.982;6.658;2024-02-04T14:07:30;27.05;;;4.18;;
58864;SDS011;45702;52.982;6.658;2024-02-04T14:09:57;12.70;;;3.53;;
58864;SDS011;45702;52.982;6.658;2024-02-04T14:12:23;24.95;;;3.20;;
58864;SDS011;45702;52.982;6.658;2024-02-04T14:14:55;13.10;;;3.20;;
58864;SDS011;45702;52.982;6.658;2024-02-04T14:17:42;16.40;;;4.07;;
58864;SDS011;45702;52.982;6.658;2024-02-04T14:20:09;17.20;;;3.50;;
58864;SDS011;45702;52.982;6.658;2024-02-04T14:22:35;15.23;;;3.75;;
58864;SDS011;45702;52.982;6.658;2024-02-04T14:25:01;18.10;;;4.40;;
58864;SDS011;45702;52.982;6.658;2024-02-04T14:27:27;20.45;;;4.43;;
58864;SDS011;45702;52.982;6.658;2024-02-04T14:29:54;14.52;;;3.80;;
58864;SDS011;45702;52.982;6.658;2024-02-04T14:32:20;19.40;;;4.28;;
58864;SDS011;45702;52.982;6.658;2024-02-04T14:34:46;11.93;;;4.20;;
58864;SDS011;45702;52.982;6.658;2024-02-04T14:37:13;17.02;;;4.43;;
58864;SDS011;45702;52.982;6.658;2024-02-04T14:39:39;13.90;;;4.40;;
58864;SDS011;45702;52.982;6.658;2024-02-04T14:42:08;16.02;;;4.40;;
58864;SDS011;45702;52.982;6.658;2024-02-04T14:44:34;17.10;;;3.97;;